createdAt,value
2023-04-21T00:00:09.742Z,100925.13
2023-04-21T00:02:39.905Z,100919.28
2023-04-21T00:05:10.435Z,100903.00
2023-04-21T00:07:39.476Z,100903.41
2023-04-21T00:10:09.985Z,100905.91
2023-04-21T00:12:38.310Z,100909.47
2023-04-21T00:15:10.504Z,100901.31
2023-04-21T00:17:39.224Z,100890.66
2023-04-21T00:20:08.706Z,100881.88
2023-04-21T00:22:36.639Z,100888.78
2023-04-21T00:25:05.339Z,100874.16
2023-04-21T00:27:34.642Z,100884.19
2023-04-21T00:30:02.645Z,100877.69
2023-04-21T00:32:30.967Z,100872.25
2023-04-21T00:35:00.228Z,100865.19
2023-04-21T00:37:28.197Z,100857.03
2023-04-21T00:39:56.119Z,100870.59
2023-04-21T00:42:23.992Z,100870.38
2023-04-21T00:44:53.600Z,100867.91
2023-04-21T00:47:21.550Z,100866.22
2023-04-21T00:49:49.480Z,100861.81
2023-04-21T00:52:17.668Z,100865.38
2023-04-21T00:54:45.834Z,100868.09
2023-04-21T00:57:13.715Z,100863.69
2023-04-21T00:59:42.002Z,100864.53
2023-04-21T01:02:11.397Z,100858.28
2023-04-21T01:04:40.299Z,100861.81
2023-04-21T01:07:10.085Z,100854.13
2023-04-21T01:09:37.986Z,100852.63
2023-04-21T01:12:06.718Z,100804.66
2023-04-21T01:14:34.960Z,100842.81
2023-04-21T01:17:03.865Z,100840.09
2023-04-21T01:19:34.359Z,100848.44
2023-04-21T01:22:04.311Z,100833.84
2023-04-21T01:24:39.205Z,100839.72
2023-04-21T01:27:10.268Z,100833.22
2023-04-21T01:29:38.317Z,100829.88
2023-04-21T01:32:07.734Z,100828.84
2023-04-21T01:34:35.995Z,100834.28
2023-04-21T01:37:05.283Z,100833.44
2023-04-21T01:39:33.170Z,100834.88
2023-04-21T01:42:01.308Z,100841.59
2023-04-21T01:44:29.481Z,100833.41
2023-04-21T01:46:57.393Z,100847.84
2023-04-21T01:49:25.344Z,100838.88
2023-04-21T01:51:53.249Z,100850.34
2023-04-21T01:54:22.879Z,100845.97
2023-04-21T01:56:50.828Z,100841.97
2023-04-21T01:59:19.146Z,100844.91
2023-04-21T02:01:47.362Z,100843.88
2023-04-21T02:04:15.764Z,100845.13
2023-04-21T02:06:43.734Z,100847.41
2023-04-21T02:09:11.645Z,100852.00
2023-04-21T02:11:40.969Z,100847.63
2023-04-21T02:14:09.167Z,100851.16
2023-04-21T02:16:37.110Z,100856.59
2023-04-21T02:19:06.096Z,100852.00
2023-04-21T02:21:33.994Z,100841.78
2023-04-21T02:24:02.264Z,100848.44
2023-04-21T02:26:30.185Z,100847.63
2023-04-21T02:28:59.521Z,100832.97
2023-04-21T02:31:27.505Z,100836.75
2023-04-21T02:33:55.898Z,100830.53
2023-04-21T02:36:23.796Z,100837.59
2023-04-21T02:38:52.039Z,100835.94
2023-04-21T02:41:19.914Z,100842.19
2023-04-21T02:43:47.790Z,100839.47
2023-04-21T02:46:17.064Z,100841.38
2023-04-21T02:48:45.025Z,100833.00
2023-04-21T02:51:13.734Z,100826.53
2023-04-21T02:53:41.927Z,100837.59
2023-04-21T02:56:09.982Z,100838.44
2023-04-21T02:58:37.849Z,100835.50
2023-04-21T03:01:06.102Z,100839.25
2023-04-21T03:03:36.239Z,100832.78
2023-04-21T03:06:05.410Z,100838.44
2023-04-21T03:08:33.336Z,100839.06
2023-04-21T03:11:02.353Z,100843.88
2023-04-21T03:13:30.536Z,100850.34
2023-04-21T03:15:58.508Z,100848.69
2023-04-21T03:18:26.645Z,100857.66
2023-04-21T03:21:00.928Z,100854.13
2023-04-21T03:23:28.797Z,100849.53
2023-04-21T03:25:56.640Z,100848.91
2023-04-21T03:28:24.616Z,100850.56
2023-04-21T03:30:52.495Z,100849.72
2023-04-21T03:33:20.744Z,100852.84
2023-04-21T03:35:48.613Z,100858.72
2023-04-21T03:38:17.882Z,100856.00
2023-04-21T03:40:45.853Z,100863.91
2023-04-21T03:43:14.027Z,100857.03
2023-04-21T03:45:41.987Z,100866.41
2023-04-21T03:48:09.935Z,100853.03
2023-04-21T03:50:38.479Z,100856.59
2023-04-21T03:53:06.698Z,100844.91
2023-04-21T03:55:36.002Z,100861.19
2023-04-21T03:58:03.944Z,100850.97
2023-04-21T04:00:31.936Z,100843.88
2023-04-21T04:03:00.697Z,100843.84
2023-04-21T04:05:28.857Z,100850.13
2023-04-21T04:07:56.835Z,100843.03
2023-04-21T04:10:24.764Z,100843.03
2023-04-21T04:12:55.269Z,100847.41
2023-04-21T04:15:23.689Z,100842.63
2023-04-21T04:17:51.671Z,100847.41
2023-04-21T04:20:19.764Z,100760.06
2023-04-21T04:22:47.700Z,100854.50
2023-04-21T04:25:17.000Z,100848.88
2023-04-21T04:27:45.731Z,100853.47
2023-04-21T04:30:15.166Z,100851.59
2023-04-21T04:32:43.150Z,100854.31
2023-04-21T04:35:12.969Z,100858.66
2023-04-21T04:37:41.254Z,100854.31
2023-04-21T04:40:12.180Z,100849.09
2023-04-21T04:42:40.702Z,100852.63
2023-04-21T04:45:11.840Z,100801.94
2023-04-21T04:47:41.583Z,100858.06
2023-04-21T04:50:09.821Z,100852.84
2023-04-21T04:52:37.785Z,100836.75
2023-04-21T04:55:07.349Z,100849.94
2023-04-21T04:57:35.536Z,100847.00
2023-04-21T05:00:03.479Z,100849.53
2023-04-21T05:02:32.021Z,100834.88
2023-04-21T05:05:01.821Z,100852.44
2023-04-21T05:07:29.895Z,100858.06
2023-04-21T05:09:57.851Z,100847.84
2023-04-21T05:12:25.916Z,100845.53
2023-04-21T05:14:53.807Z,100861.63
2023-04-21T05:17:22.766Z,100866.00
2023-04-21T05:19:50.810Z,100857.03
2023-04-21T05:22:20.222Z,100863.28
2023-04-21T05:24:48.515Z,100824.69
2023-04-21T05:27:16.472Z,100862.47
2023-04-21T05:29:44.380Z,100870.59
2023-04-21T05:32:12.551Z,100866.81
2023-04-21T05:34:40.874Z,100869.53
2023-04-21T05:37:08.759Z,100875.81
2023-04-21T05:39:38.116Z,100873.31
2023-04-21T05:42:06.737Z,100877.69
2023-04-21T05:44:34.972Z,100870.41
2023-04-21T05:47:02.920Z,100873.53
2023-04-21T05:49:30.836Z,100869.13
2023-04-21T05:51:58.752Z,100875.41
2023-04-21T05:54:26.970Z,100873.13
2023-04-21T05:56:56.948Z,100869.13
2023-04-21T05:59:26.372Z,100877.28
2023-04-21T06:01:54.495Z,100871.84
2023-04-21T06:04:23.026Z,100873.53
2023-04-21T06:06:51.193Z,100863.31
2023-04-21T06:09:19.125Z,100864.75
2023-04-21T06:11:47.056Z,100871.00
2023-04-21T06:14:16.612Z,100856.84
2023-04-21T06:16:46.916Z,100859.31
2023-04-21T06:19:14.926Z,100865.59
2023-04-21T06:21:42.793Z,100857.44
2023-04-21T06:24:10.973Z,100860.16
2023-04-21T06:26:38.869Z,100872.88
2023-04-21T06:29:06.805Z,100866.41
2023-04-21T06:31:36.185Z,100859.97
2023-04-21T06:34:04.381Z,100869.13
2023-04-21T06:36:33.052Z,100874.56
2023-04-21T06:39:01.292Z,100876.44
2023-04-21T06:41:29.185Z,100861.84
2023-04-21T06:43:57.428Z,100873.53
2023-04-21T06:46:25.376Z,100863.69
2023-04-21T06:48:54.660Z,100868.09
2023-04-21T06:51:22.566Z,100863.69
2023-04-21T06:53:50.799Z,100851.41
2023-04-21T06:56:18.928Z,100850.97
2023-04-21T06:58:47.892Z,100861.00
2023-04-21T07:01:16.032Z,100862.88
2023-04-21T07:03:45.695Z,100865.59
2023-04-21T07:06:15.173Z,100857.22
2023-04-21T07:08:43.305Z,100837.00
2023-04-21T07:11:11.297Z,100863.69
2023-04-21T07:13:39.209Z,100868.09
2023-04-21T07:16:07.456Z,100861.00
2023-04-21T07:18:35.646Z,100856.00
2023-04-21T07:21:03.619Z,100850.13
2023-04-21T07:23:33.413Z,100854.50
2023-04-21T07:26:01.425Z,100852.63
2023-04-21T07:28:29.424Z,100856.41
2023-04-21T07:30:57.389Z,100859.31
2023-04-21T07:33:25.636Z,100845.31
2023-04-21T07:35:53.571Z,100864.34
2023-04-21T07:38:21.463Z,100860.78
2023-04-21T07:40:50.748Z,100868.09
2023-04-21T07:43:19.632Z,100832.00
2023-04-21T07:45:47.568Z,100856.19
2023-04-21T07:48:15.847Z,100858.06
2023-04-21T07:50:43.798Z,100850.75
2023-04-21T07:53:12.012Z,100848.69
2023-04-21T07:55:39.881Z,100857.03
2023-04-21T07:58:10.429Z,100864.34
2023-04-21T08:00:38.441Z,100862.47
2023-04-21T08:03:06.814Z,100863.28
2023-04-21T08:05:37.689Z,100868.72
2023-04-21T08:08:08.414Z,100854.72
2023-04-21T08:10:36.346Z,100863.28
2023-04-21T08:13:06.393Z,100861.38
2023-04-21T08:15:36.357Z,100859.50
2023-04-21T08:18:04.377Z,100851.34
2023-04-21T08:20:32.312Z,100855.97
2023-04-21T08:23:02.575Z,100824.03
2023-04-21T08:25:31.010Z,100854.91
2023-04-21T08:27:58.975Z,100858.47
2023-04-21T08:30:28.353Z,100854.06
2023-04-21T08:32:57.748Z,100843.66
2023-04-21T08:35:25.780Z,100854.91
2023-04-21T08:37:53.781Z,100807.75
2023-04-21T08:40:21.685Z,100850.75
2023-04-21T08:42:49.802Z,100850.53
2023-04-21T08:45:17.793Z,100846.56
2023-04-21T08:47:45.897Z,100855.97
2023-04-21T08:50:15.652Z,100847.41
2023-04-21T08:52:43.562Z,100853.03
2023-04-21T08:55:12.974Z,100848.66
2023-04-21T08:57:40.913Z,100849.47
2023-04-21T09:00:11.634Z,100840.50
2023-04-21T09:03:00.174Z,100826.34
2023-04-21T09:05:32.005Z,100831.13
2023-04-21T09:08:09.290Z,100844.06
2023-04-21T09:10:46.305Z,100851.16
2023-04-21T09:13:14.207Z,100851.34
2023-04-21T09:15:42.106Z,100847.59
2023-04-21T09:18:15.678Z,100848.44
2023-04-21T09:20:46.873Z,100851.16
2023-04-21T09:23:16.588Z,100842.16
2023-04-21T09:25:45.781Z,100848.44
2023-04-21T09:28:14.140Z,100847.41
2023-04-21T09:30:44.259Z,100848.22
2023-04-21T09:33:27.249Z,100846.56
2023-04-21T09:35:58.627Z,100840.09
2023-04-21T09:38:26.500Z,100850.13
2023-04-21T09:41:00.610Z,100846.34
2023-04-21T09:43:28.507Z,100836.53
2023-04-21T09:45:56.479Z,100833.81
2023-04-21T09:48:24.453Z,100825.69
2023-04-21T09:51:22.739Z,100820.44
2023-04-21T09:53:41.946Z,100810.22
2023-04-21T09:56:11.865Z,100819.19
2023-04-21T09:58:48.776Z,100814.59
2023-04-21T10:01:16.806Z,100767.88
2023-04-21T10:03:45.860Z,100808.34
2023-04-21T10:06:14.024Z,100793.69
2023-04-21T10:08:43.790Z,100801.84
2023-04-21T10:11:11.718Z,100794.97
2023-04-21T10:13:40.008Z,100797.69
2023-04-21T10:16:08.922Z,100792.88
2023-04-21T10:18:38.332Z,100802.66
2023-04-21T10:21:07.941Z,100801.63
2023-04-21T10:23:39.453Z,100796.19
2023-04-21T10:26:11.302Z,100755.34
2023-04-21T10:28:55.718Z,100791.81
2023-04-21T10:31:30.394Z,100716.13
2023-04-21T10:34:20.571Z,100780.94
2023-04-21T10:36:51.885Z,100775.50
2023-04-21T10:39:29.400Z,100771.97
2023-04-21T10:41:59.296Z,100770.06
2023-04-21T10:44:27.823Z,100763.81
2023-04-21T10:46:56.484Z,100751.06
2023-04-21T10:49:24.917Z,100751.91
2023-04-21T10:52:05.992Z,100739.38
2023-04-21T10:54:41.604Z,100733.94
2023-04-21T10:57:12.073Z,100721.00
2023-04-21T10:59:39.991Z,100725.59
2023-04-21T11:02:09.453Z,100714.72
2023-04-21T11:04:40.265Z,100712.00
2023-04-21T11:07:08.952Z,100711.78
2023-04-21T11:09:37.244Z,100713.69
2023-04-21T11:12:07.470Z,100710.13
2023-04-21T11:14:37.777Z,100708.25
2023-04-21T11:17:06.206Z,100698.22
2023-04-21T11:19:34.183Z,100695.50
2023-04-21T11:22:02.094Z,100688.19
2023-04-21T11:24:30.375Z,100696.34
2023-04-21T11:26:58.421Z,100686.31
2023-04-21T11:29:26.351Z,100673.97
2023-04-21T11:31:57.717Z,100674.59
2023-04-21T11:34:27.339Z,100661.44
2023-04-21T11:36:55.828Z,100671.06
2023-04-21T11:39:23.730Z,100662.91
2023-04-21T11:41:52.103Z,100660.19
2023-04-21T11:44:32.470Z,100651.88
2023-04-21T11:47:01.897Z,100660.41
2023-04-21T11:49:30.556Z,100647.03
2023-04-21T11:51:58.504Z,100650.16
2023-04-21T11:54:26.744Z,100648.28
2023-04-21T11:56:55.461Z,100635.38
2023-04-21T11:59:25.712Z,100649.13
2023-04-21T12:01:54.933Z,100631.16
2023-04-21T12:04:25.405Z,100634.72
2023-04-21T12:06:57.967Z,100626.56
2023-04-21T12:09:25.961Z,100621.13
2023-04-21T12:11:54.588Z,100622.81
2023-04-21T12:14:23.294Z,100618.41
2023-04-21T12:16:51.743Z,100615.69
2023-04-21T12:19:36.656Z,100614.88
2023-04-21T12:22:08.488Z,100614.03
2023-04-21T12:24:36.979Z,100612.97
2023-04-21T12:27:05.133Z,100604.00
2023-04-21T12:29:35.070Z,100608.81
2023-04-21T12:32:03.280Z,100605.88
2023-04-21T12:34:33.014Z,100593.13
2023-04-21T12:37:00.944Z,100584.81
2023-04-21T12:39:29.982Z,100596.69
2023-04-21T12:41:58.335Z,100598.34
2023-04-21T12:44:26.906Z,100598.56
2023-04-21T12:46:54.889Z,100575.03
2023-04-21T12:49:22.894Z,100592.09
2023-04-21T12:51:52.230Z,100592.09
2023-04-21T12:54:20.449Z,100588.28
2023-04-21T12:56:48.333Z,100592.94
2023-04-21T12:59:16.235Z,100589.13
2023-04-21T13:01:44.557Z,100582.88
2023-04-21T13:04:13.152Z,100575.63
2023-04-21T13:06:41.320Z,100579.34
2023-04-21T13:09:11.330Z,100571.19
2023-04-21T13:11:39.941Z,100563.84
2023-04-21T13:14:08.290Z,100563.25
2023-04-21T13:16:36.260Z,100558.66
2023-04-21T13:19:04.206Z,100576.38
2023-04-21T13:21:32.721Z,100552.81
2023-04-21T13:24:02.358Z,100553.00
2023-04-21T13:26:32.397Z,100550.28
2023-04-21T13:29:00.282Z,100549.47
2023-04-21T13:31:28.220Z,100542.13
2023-04-21T13:33:56.537Z,100544.03
2023-04-21T13:36:24.498Z,100542.13
2023-04-21T13:38:53.922Z,100528.38
2023-04-21T13:41:21.813Z,100537.53
2023-04-21T13:43:51.372Z,100529.47
2023-04-21T13:46:19.903Z,100529.38
2023-04-21T13:48:47.827Z,100523.13
2023-04-21T13:51:15.714Z,100517.69
2023-04-21T13:53:43.900Z,100523.13
2023-04-21T13:56:13.791Z,100511.22
2023-04-21T13:58:42.154Z,100509.53
2023-04-21T14:01:11.709Z,100443.03
2023-04-21T14:03:40.216Z,100512.25
2023-04-21T14:06:08.411Z,100489.72
2023-04-21T14:08:36.541Z,100500.59
2023-04-21T14:11:04.830Z,100470.88
2023-04-21T14:13:37.838Z,100498.69
2023-04-21T14:16:11.671Z,100484.28
2023-04-21T14:18:44.463Z,100488.44
2023-04-21T14:21:12.525Z,100451.03
2023-04-21T14:23:40.479Z,100475.06
2023-04-21T14:26:08.356Z,100469.25
2023-04-21T14:28:36.352Z,100478.63
2023-04-21T14:31:05.374Z,100474.06
2023-04-21T14:33:37.765Z,100479.44
2023-04-21T14:36:05.782Z,100472.13
2023-04-21T14:38:34.713Z,100473.81
2023-04-21T14:41:02.604Z,100479.44
2023-04-21T14:43:30.773Z,100468.59
2023-04-21T14:45:58.846Z,100453.19
2023-04-21T14:48:27.253Z,100467.53
2023-04-21T14:50:58.069Z,100457.72
2023-04-21T14:53:26.407Z,100444.97
2023-04-21T14:55:54.809Z,100448.75
2023-04-21T14:58:22.859Z,100439.56
2023-04-21T15:00:50.994Z,100438.50
2023-04-21T15:03:20.585Z,100438.28
2023-04-21T15:05:48.745Z,100438.88
2023-04-21T15:08:18.368Z,100438.28
2023-04-21T15:10:47.614Z,100389.44
2023-04-21T15:13:15.915Z,100431.19
2023-04-21T15:15:43.864Z,100418.28
2023-04-21T15:18:11.854Z,100423.88
2023-04-21T15:20:45.356Z,100418.44
2023-04-21T15:23:14.080Z,100416.56
2023-04-21T15:25:43.518Z,100401.31
2023-04-21T15:28:12.831Z,100397.75
2023-04-21T15:30:40.823Z,100382.22
2023-04-21T15:33:11.596Z,100393.16
2023-04-21T15:35:39.746Z,100396.72
2023-04-21T15:38:07.990Z,100395.88
2023-04-21T15:40:39.295Z,100386.69
2023-04-21T15:43:16.201Z,100383.13
2023-04-21T15:45:44.196Z,100379.59
2023-04-21T15:48:13.213Z,100362.31
2023-04-21T15:50:41.292Z,100364.13
2023-04-21T15:53:09.741Z,100363.28
2023-04-21T15:55:37.880Z,100362.25
2023-04-21T15:58:06.105Z,100364.13
2023-04-21T16:00:35.429Z,100364.13
2023-04-21T16:03:03.933Z,100359.28
2023-04-21T16:05:32.257Z,100349.25
2023-04-21T16:08:00.684Z,100352.78
2023-04-21T16:10:28.990Z,100343.81
2023-04-21T16:12:56.943Z,100351.97
2023-04-21T16:15:25.354Z,100347.59
2023-04-21T16:17:54.971Z,100350.06
2023-04-21T16:20:22.976Z,100347.22
2023-04-21T16:22:51.236Z,100350.06
2023-04-21T16:25:20.092Z,100356.56
2023-04-21T16:27:48.196Z,100351.38
2023-04-21T16:30:16.357Z,100357.41
2023-04-21T16:32:44.325Z,100337.47
2023-04-21T16:35:13.958Z,100357.19
2023-04-21T16:37:42.888Z,100354.47
2023-04-21T16:40:11.490Z,100343.81
2023-04-21T16:42:39.435Z,100349.84
2023-04-21T16:45:10.507Z,100349.84
2023-04-21T16:47:41.775Z,100350.91
2023-04-21T16:50:10.570Z,100353.41
2023-04-21T16:52:39.876Z,100354.25
2023-04-21T16:55:08.824Z,100347.72
2023-04-21T16:57:36.719Z,100336.03
2023-04-21T17:00:09.179Z,100340.41
2023-04-21T17:02:37.315Z,100282.88
2023-04-21T17:05:06.329Z,100335.38
2023-04-21T17:07:35.290Z,100333.72
2023-04-21T17:10:05.007Z,100333.72
2023-04-21T17:12:32.954Z,100322.09
2023-04-21T17:15:01.153Z,100332.03
2023-04-21T17:17:29.190Z,100329.53
2023-04-21T17:19:57.135Z,100286.56
2023-04-21T17:22:25.030Z,100315.97
2023-04-21T17:24:53.976Z,100306.25
2023-04-21T17:27:23.623Z,100317.03
2023-04-21T17:29:51.536Z,100317.84
2023-04-21T17:32:19.792Z,100310.03
2023-04-21T17:34:48.194Z,100316.22
2023-04-21T17:37:16.071Z,100307.47
2023-04-21T17:39:43.997Z,100326.84
2023-04-21T17:42:11.879Z,100319.50
2023-04-21T17:44:41.933Z,100233.09
2023-04-21T17:47:10.118Z,100325.78
2023-04-21T17:49:38.122Z,100330.38
2023-04-21T17:52:06.530Z,100326.00
2023-04-21T17:54:35.061Z,100320.34
2023-04-21T17:57:03.053Z,100324.94
2023-04-21T17:59:31.148Z,100317.28
2023-04-21T18:02:01.031Z,100310.78
2023-04-21T18:04:30.749Z,100323.28
2023-04-21T18:06:59.004Z,100309.13
2023-04-21T18:09:27.053Z,100320.81
2023-04-21T18:11:56.863Z,100269.97
2023-04-21T18:14:26.777Z,100327.88
2023-04-21T18:16:55.192Z,100331.69
2023-04-21T18:19:24.621Z,100335.22
2023-04-21T18:21:52.556Z,100334.41
2023-04-21T18:24:20.514Z,100343.38
2023-04-21T18:26:48.425Z,100342.53
2023-04-21T18:29:17.865Z,100311.63
2023-04-21T18:31:45.958Z,100338.75
2023-04-21T18:34:15.110Z,100333.31
2023-04-21T18:36:44.423Z,100331.44
2023-04-21T18:39:12.470Z,100319.72
2023-04-21T18:41:40.494Z,100316.28
2023-04-21T18:44:11.111Z,100317.81
2023-04-21T18:46:39.145Z,100336.88
2023-04-21T18:49:07.129Z,100342.28
2023-04-21T18:51:35.365Z,100340.66
2023-04-21T18:54:05.439Z,100314.94
2023-04-21T18:56:33.607Z,100351.28
2023-04-21T18:59:01.563Z,100346.91
2023-04-21T19:01:29.566Z,100362.13
2023-04-21T19:03:58.923Z,100379.28
2023-04-21T19:06:27.946Z,100381.97
2023-04-21T19:08:56.881Z,100439.66
2023-04-21T19:11:26.183Z,100432.38
2023-04-21T19:13:54.394Z,100379.00
2023-04-21T19:16:22.345Z,100452.38
2023-04-21T19:18:52.144Z,100349.34
2023-04-21T19:21:20.162Z,100364.28
2023-04-21T19:23:48.540Z,100443.41
2023-04-21T19:26:16.542Z,100440.69
2023-04-21T19:28:45.883Z,100382.94
2023-04-21T19:31:13.781Z,100439.84
2023-04-21T19:33:41.941Z,100436.31
2023-04-21T19:36:09.876Z,100434.75
2023-04-21T19:38:37.812Z,100454.06
2023-04-21T19:41:05.725Z,100447.56
2023-04-21T19:43:33.984Z,100458.44
2023-04-21T19:46:03.332Z,100437.66
2023-04-21T19:48:31.487Z,100449.88
2023-04-21T19:50:59.501Z,100440.69
2023-04-21T19:53:28.749Z,100418.13
2023-04-21T19:55:56.628Z,100399.13
2023-04-21T19:58:38.664Z,100391.81
2023-04-21T20:01:09.443Z,100325.28
2023-04-21T20:03:37.934Z,100379.28
2023-04-21T20:06:06.497Z,100374.66
2023-04-21T20:08:35.563Z,100389.31
2023-04-21T20:11:03.575Z,100393.06
2023-04-21T20:13:31.777Z,100402.88
2023-04-21T20:15:59.809Z,100374.28
2023-04-21T20:18:29.187Z,100395.19
2023-04-21T20:20:57.183Z,100397.69
2023-04-21T20:23:26.431Z,100391.44
2023-04-21T20:25:54.397Z,100403.13
2023-04-21T20:28:22.318Z,100412.06
2023-04-21T20:30:50.209Z,100403.13
2023-04-21T20:33:18.219Z,100398.50
2023-04-21T20:35:47.544Z,100406.66
2023-04-21T20:38:15.972Z,100403.94
2023-04-21T20:40:43.951Z,100393.31
2023-04-21T20:43:12.335Z,100394.72
2023-04-21T20:45:41.295Z,100393.69
2023-04-21T20:48:09.341Z,100390.13
2023-04-21T20:50:37.338Z,100383.66
2023-04-21T20:53:08.827Z,100389.31
2023-04-21T20:55:36.802Z,100378.22
2023-04-21T20:58:04.863Z,100388.25
2023-04-21T21:00:34.373Z,100308.94
2023-04-21T21:03:03.879Z,100377.38
2023-04-21T21:05:34.050Z,100381.16
2023-04-21T21:08:01.982Z,100381.16
2023-04-21T21:10:31.328Z,100390.13
2023-04-21T21:12:59.823Z,100392.03
2023-04-21T21:15:27.949Z,100377.22
2023-04-21T21:17:56.762Z,100386.84
2023-04-21T21:20:24.731Z,100390.34
2023-04-21T21:22:52.706Z,100377.84
2023-04-21T21:25:20.652Z,100374.31
2023-04-21T21:27:50.032Z,100377.84
2023-04-21T21:30:17.934Z,100371.34
2023-04-21T21:32:45.884Z,100372.41
2023-04-21T21:35:13.806Z,100375.97
2023-04-21T21:37:41.959Z,100375.13
2023-04-21T21:40:11.027Z,100375.13
2023-04-21T21:42:39.030Z,100358.91
2023-04-21T21:45:12.721Z,100380.56
2023-04-21T21:47:43.182Z,100373.25
2023-04-21T21:50:12.588Z,100370.75
2023-04-21T21:52:40.474Z,100378.06
2023-04-21T21:55:09.512Z,100374.31
2023-04-21T21:57:37.560Z,100385.16
2023-04-21T22:00:09.013Z,100345.47
2023-04-21T22:02:38.442Z,100381.63
2023-04-21T22:05:07.071Z,100378.06
2023-04-21T22:07:35.422Z,100374.31
2023-04-21T22:10:03.837Z,100378.91
2023-04-21T22:12:32.493Z,100378.06
2023-04-21T22:15:01.174Z,100372.84
2023-04-21T22:17:29.710Z,100370.13
2023-04-21T22:19:59.124Z,100371.81
2023-04-21T22:22:27.113Z,100365.53
2023-04-21T22:24:55.512Z,100368.25
2023-04-21T22:27:23.395Z,100377.44
2023-04-21T22:29:51.430Z,100375.56
2023-04-21T22:32:19.351Z,100378.53
2023-04-21T22:34:47.513Z,100328.69
2023-04-21T22:37:16.851Z,100371.66
2023-04-21T22:39:45.912Z,100384.56
2023-04-21T22:42:13.788Z,100383.13
2023-04-21T22:44:41.704Z,100381.25
2023-04-21T22:47:10.633Z,100382.31
2023-04-21T22:49:38.883Z,100375.19
2023-04-21T22:52:07.146Z,100378.53
2023-04-21T22:54:36.436Z,100381.25
2023-04-21T22:57:04.365Z,100369.41
2023-04-21T22:59:32.284Z,100363.00
2023-04-21T23:02:00.312Z,100373.53
2023-04-21T23:04:28.344Z,100369.16
2023-04-21T23:06:56.281Z,100359.59
2023-04-21T23:09:24.222Z,100367.28
2023-04-21T23:11:53.653Z,100365.38
2023-04-21T23:14:21.562Z,100351.88
2023-04-21T23:16:49.539Z,100370.81
2023-04-21T23:19:17.507Z,100371.88
2023-04-21T23:21:46.486Z,100367.28
2023-04-21T23:24:14.487Z,100357.94
2023-04-21T23:26:42.410Z,100367.28
2023-04-21T23:29:11.691Z,100367.28
2023-04-21T23:31:40.000Z,100362.69
2023-04-21T23:34:08.265Z,100361.84
2023-04-21T23:36:36.318Z,100358.06
2023-04-21T23:39:04.280Z,100293.78
2023-04-21T23:41:32.194Z,100364.56
2023-04-21T23:44:00.338Z,100361.25
2023-04-21T23:46:29.736Z,100361.84
2023-04-21T23:48:57.733Z,100354.59
2023-04-21T23:51:25.745Z,100360.19
2023-04-21T23:53:53.957Z,100364.56
2023-04-21T23:56:21.918Z,100366.44
2023-04-21T23:58:49.865Z,100369.16
